KGHW

Glenwood Municipal Airport

Glenwood, Minnesota, USA
METAR KGHW 212335Z AUTO 04009KT 10SM CLR 24/15 A2993 RMK AO2
Observed Flight Rules
Jun-21 @ 23:35 UTC (21 minutes ago) Visual Flight Rules
Wind Visibility Clouds
40° at 9 knots 10 miles
  • Clear skies
Temperatures Readings
Current 24°C / 75°F
Dewpoint 15°C / 59°F
Humidity 57%
Altimeter 29.93" Hg
Pressure 1014 hPa
Elevation 425
METAR KGHW 212335Z AUTO 04009KT 10SM CLR 24/15 A2993 RMK AO2
Observed Flight Rules
Jun-21 @ 23:35 UTC
(21 minutes ago)
VFR
Wind Visibility
40° at 9 knots 10 miles
Clouds
  • Clear skies
Temperature Dewpoint
24°C / 75°F 15°C / 59°F
Humidity Altimeter Pressure
57% 29.93" Hg 1014 hPa